« 初搭乗 南ぬ島新石垣空港 2013/3/8 fri | トップページ | 全部撮-3その2 南ぬ島石垣空港 2013/3/7 thu »

2013/03/13

全部撮-3その1 南ぬ島石垣空港 2013/3/7 thu

空港の切替で新旧の名称が混在する状況ですが、新空港の愛称は、「南ぬ島石垣空港」が正解。ぱいいーぐる君に指導を受けました。よって前段までのブログの標題は誤っておりました。いずれ時期がくれば、名称の統一が図られると思われます。ちなみに、そらマニア的には、

新石垣空港を使っているのは、空港名(NewIshigakiAirport)、 新石垣空港管理事務所、沖縄県新石垣空港課、新石垣管制圏(NewIshigakiCTR)、ATIS(NewIshigakiAirport)、空港チャート類

空港の名盤なんかは、石垣空港。タワーのC/Sは IshigakiTWR 、新空港のVOR/DMEは石垣島VOR/DME(IGE)です。

でわ開港編に続いて、開港日一日の全部撮り-3便を始めます。

開港編から続く

20130307_roig_200pieagle

駐車場入場ゲート脇には、空港の守護神ぱいーぐる君

ROIG 072300Z 25003KT 9999 SCT028 20/16 Q1017

20130307_roig_201ja62an

20130307_roig_202ja62an

青組は今日から-800の就航です。

ANA1761 ROAH-ROIG JA62AN B737-881

20130307_roig_203ja969a

20130307_roig_204ja969a

朝、空港を周回してからパトロールに出かけていた海保のへりが新空港にランディング。

JA969A AW139 JCG

ROIG 080000Z 19007KT 9999 FEW030 22/17 Q1018

20130307_roig_205hitomoji

赤組の出発式で、なにやらエプロンで人文字??

20130307_roig_206ja8939

20130307_roig_207ja8939

JTA600 ROIG-ROAH JA8939 B737-4Q3

whitewing681 さんの動画

20130307_roig_208ja8940

JTA71 RJTT-ROIG JA8940 B737-4Q3

20130307_roig_209ja62an

ANA1764 ROIG-ROAH JA62AN B737-881

ROIG 080100Z 18008KT 9999 FEW025 23/16 Q1018

20130307_roig_210ja63nh

那覇から宮古経由でNHKの取材へりがやってきた。

JA63NH SA365  ANH

20130307_roig_211ja9595

最後に旧石垣空港場外を飛び立った海保へりも到着。

JA9595 B212 JCG

20130307_roig_212ja307k

ANA1763 ROAH-ROIG JA307K B737-54K

20130307_roig_213ja8597

那覇からの臨時便の折り返しは高松へのチャーター

20130307_roig_214ja8938

JTA83 RJBB-ROIG JA8938 B737-4Q3

20130307_roig_215ja8974

RAC742 ROYN-ROIG JA8974 DHC8-100

20130307_roig_216ja8597

JTA3502 ROIG-RJOT JA8597 B737-4Q3

whitewing681さんの動画

20130307_roig_217jcg

海保エプロンには旧石垣空港最後のへりを見送った電源車も、トラックに載せられて到着。

20130307_roig_218hl8223

20130307_roig_219hl8223

KAL9737 RKSI-ROIG HL8223 B737-9B5ER

20130307_roig_220ja63nh

国際チャーターの大韓を撮りたくて近づいたNHK

20130307_roig_221ja8940

20130307_roig_222ja8940

JTA70 ROIG-RJTT JA8940 B737-4Q3

ROIG 080200Z 20010KT 160V230 9999 FEW025 23/16 Q1018

20130307_roig_223ja6107

JA6107 HU36 NNK

20130307_roig_224ja15an_2

ANA1745 ROAH-ROIG JA15AN B737-781

20130307_roig_225ja8974

RAC741 ROIG-ROYN JA8974 DHC8-100

20130307_roig_226ja307k

ANA1766 ROIG-ROAH JA307K B737-54K

20130307_roig_227ja67an

ANA1747 RJBB-ROAH JA67AN B737-881

20130307_roig_228ja8935

20130307_roig_229ja8935

今日は国際チャーターのハンドリングでスポット運用がキツキツ。RACはタワー前のオープンに。

RAC833 ROMY-ROIG JA8935 DHC8-100

20130307_roig_230ja8938

JTA606 ROIG-ROAH JA8938 B737-4Q3

その2につづく・・・

|

« 初搭乗 南ぬ島新石垣空港 2013/3/8 fri | トップページ | 全部撮-3その2 南ぬ島石垣空港 2013/3/7 thu »

石垣空港」カテゴリの記事

コメント

コメントを書く



(ウェブ上には掲載しません)


コメントは記事投稿者が公開するまで表示されません。



トラックバック


この記事へのトラックバック一覧です: 全部撮-3その1 南ぬ島石垣空港 2013/3/7 thu:

« 初搭乗 南ぬ島新石垣空港 2013/3/8 fri | トップページ | 全部撮-3その2 南ぬ島石垣空港 2013/3/7 thu »